sensor_id;sensor_type;location;lat;lon;timestamp;P1;durP1;ratioP1;P2;durP2;ratioP2
50483;SDS011;36409;52.168;20.878;2023-04-08T00:02:07;21.77;;;15.25;;
50483;SDS011;36409;52.168;20.878;2023-04-08T00:04:36;18.47;;;13.37;;
50483;SDS011;36409;52.168;20.878;2023-04-08T00:07:08;21.40;;;15.33;;
50483;SDS011;36409;52.168;20.878;2023-04-08T00:09:37;21.60;;;15.47;;
50483;SDS011;36409;52.168;20.878;2023-04-08T00:12:07;22.77;;;16.27;;
50483;SDS011;36409;52.168;20.878;2023-04-08T00:14:35;21.47;;;15.77;;
50483;SDS011;36409;52.168;20.878;2023-04-08T00:17:04;22.00;;;16.50;;
50483;SDS011;36409;52.168;20.878;2023-04-08T00:19:34;23.03;;;16.20;;
50483;SDS011;36409;52.168;20.878;2023-04-08T00:24:35;23.87;;;17.30;;
50483;SDS011;36409;52.168;20.878;2023-04-08T00:27:06;23.27;;;16.07;;
50483;SDS011;36409;52.168;20.878;2023-04-08T00:29:35;24.80;;;17.40;;
50483;SDS011;36409;52.168;20.878;2023-04-08T00:32:04;26.03;;;17.57;;
50483;SDS011;36409;52.168;20.878;2023-04-08T00:34:34;25.60;;;17.23;;
50483;SDS011;36409;52.168;20.878;2023-04-08T00:37:05;23.40;;;17.50;;
50483;SDS011;36409;52.168;20.878;2023-04-08T00:39:38;24.93;;;17.77;;
50483;SDS011;36409;52.168;20.878;2023-04-08T00:42:09;24.40;;;16.83;;
50483;SDS011;36409;52.168;20.878;2023-04-08T00:44:41;22.57;;;16.13;;
50483;SDS011;36409;52.168;20.878;2023-04-08T00:47:12;24.33;;;16.43;;
50483;SDS011;36409;52.168;20.878;2023-04-08T00:49:43;24.40;;;16.77;;
50483;SDS011;36409;52.168;20.878;2023-04-08T00:52:13;22.90;;;16.10;;
50483;SDS011;36409;52.168;20.878;2023-04-08T00:54:45;24.13;;;16.73;;
50483;SDS011;36409;52.168;20.878;2023-04-08T00:57:16;25.90;;;17.90;;
50483;SDS011;36409;52.168;20.878;2023-04-08T00:59:45;24.77;;;17.23;;
50483;SDS011;36409;52.168;20.878;2023-04-08T01:02:17;24.43;;;17.30;;
50483;SDS011;36409;52.168;20.878;2023-04-08T01:04:56;23.63;;;16.50;;
50483;SDS011;36409;52.168;20.878;2023-04-08T01:07:31;23.20;;;16.00;;
50483;SDS011;36409;52.168;20.878;2023-04-08T01:10:04;24.80;;;16.33;;
50483;SDS011;36409;52.168;20.878;2023-04-08T01:12:40;26.20;;;17.57;;
50483;SDS011;36409;52.168;20.878;2023-04-08T01:15:15;25.87;;;17.83;;
50483;SDS011;36409;52.168;20.878;2023-04-08T01:17:49;22.60;;;16.43;;
50483;SDS011;36409;52.168;20.878;2023-04-08T01:20:25;23.10;;;15.83;;
50483;SDS011;36409;52.168;20.878;2023-04-08T01:23:02;21.83;;;15.63;;
50483;SDS011;36409;52.168;20.878;2023-04-08T01:25:47;22.57;;;15.57;;
50483;SDS011;36409;52.168;20.878;2023-04-08T01:28:18;22.50;;;16.27;;
50483;SDS011;36409;52.168;20.878;2023-04-08T01:30:52;20.90;;;15.17;;
50483;SDS011;36409;52.168;20.878;2023-04-08T01:33:27;21.35;;;14.80;;
50483;SDS011;36409;52.168;20.878;2023-04-08T01:35:57;21.33;;;15.33;;
50483;SDS011;36409;52.168;20.878;2023-04-08T01:38:37;21.73;;;14.73;;
50483;SDS011;36409;52.168;20.878;2023-04-08T01:41:18;20.63;;;15.10;;
50483;SDS011;36409;52.168;20.878;2023-04-08T01:43:49;18.60;;;13.07;;
50483;SDS011;36409;52.168;20.878;2023-04-08T01:46:19;19.73;;;14.13;;
50483;SDS011;36409;52.168;20.878;2023-04-08T01:48:53;19.03;;;13.87;;
50483;SDS011;36409;52.168;20.878;2023-04-08T01:51:25;19.50;;;14.37;;
50483;SDS011;36409;52.168;20.878;2023-04-08T01:53:58;20.15;;;14.15;;
50483;SDS011;36409;52.168;20.878;2023-04-08T01:56:28;21.15;;;13.55;;
50483;SDS011;36409;52.168;20.878;2023-04-08T01:59:00;21.23;;;14.67;;
50483;SDS011;36409;52.168;20.878;2023-04-08T02:01:42;18.33;;;13.13;;
50483;SDS011;36409;52.168;20.878;2023-04-08T02:04:13;18.83;;;13.47;;
50483;SDS011;36409;52.168;20.878;2023-04-08T02:06:52;19.33;;;14.07;;
50483;SDS011;36409;52.168;20.878;2023-04-08T02:09:23;19.53;;;13.83;;
50483;SDS011;36409;52.168;20.878;2023-04-08T02:14:25;20.10;;;13.47;;
50483;SDS011;36409;52.168;20.878;2023-04-08T02:16:58;19.30;;;13.07;;
50483;SDS011;36409;52.168;20.878;2023-04-08T02:19:35;17.77;;;12.70;;
50483;SDS011;36409;52.168;20.878;2023-04-08T02:22:09;18.13;;;13.00;;
50483;SDS011;36409;52.168;20.878;2023-04-08T02:24:45;18.55;;;13.40;;
50483;SDS011;36409;52.168;20.878;2023-04-08T02:27:17;18.70;;;13.63;;
50483;SDS011;36409;52.168;20.878;2023-04-08T02:29:49;18.87;;;12.73;;
50483;SDS011;36409;52.168;20.878;2023-04-08T02:32:22;19.77;;;13.47;;
50483;SDS011;36409;52.168;20.878;2023-04-08T02:34:56;18.95;;;13.22;;
50483;SDS011;36409;52.168;20.878;2023-04-08T02:37:27;18.93;;;13.53;;
50483;SDS011;36409;52.168;20.878;2023-04-08T02:39:56;20.87;;;14.33;;
50483;SDS011;36409;52.168;20.878;2023-04-08T02:42:27;18.90;;;13.63;;
50483;SDS011;36409;52.168;20.878;2023-04-08T02:44:56;19.37;;;14.37;;
50483;SDS011;36409;52.168;20.878;2023-04-08T02:47:25;21.80;;;13.50;;
50483;SDS011;36409;52.168;20.878;2023-04-08T02:49:54;20.23;;;13.47;;
50483;SDS011;36409;52.168;20.878;2023-04-08T02:52:26;18.37;;;13.77;;
50483;SDS011;36409;52.168;20.878;2023-04-08T02:54:55;19.47;;;14.23;;
50483;SDS011;36409;52.168;20.878;2023-04-08T02:57:26;18.63;;;12.97;;
50483;SDS011;36409;52.168;20.878;2023-04-08T02:59:55;18.83;;;12.93;;
50483;SDS011;36409;52.168;20.878;2023-04-08T03:02:27;18.40;;;12.87;;
50483;SDS011;36409;52.168;20.878;2023-04-08T03:04:56;18.77;;;13.63;;
50483;SDS011;36409;52.168;20.878;2023-04-08T03:07:28;19.53;;;14.03;;
50483;SDS011;36409;52.168;20.878;2023-04-08T03:10:01;17.57;;;12.97;;
50483;SDS011;36409;52.168;20.878;2023-04-08T03:12:30;19.83;;;13.93;;
50483;SDS011;36409;52.168;20.878;2023-04-08T03:15:00;19.90;;;13.87;;
50483;SDS011;36409;52.168;20.878;2023-04-08T03:17:36;20.53;;;14.03;;
50483;SDS011;36409;52.168;20.878;2023-04-08T03:20:08;19.50;;;13.70;;
50483;SDS011;36409;52.168;20.878;2023-04-08T03:22:39;19.23;;;13.72;;
50483;SDS011;36409;52.168;20.878;2023-04-08T03:25:09;22.90;;;15.30;;
50483;SDS011;36409;52.168;20.878;2023-04-08T03:27:39;19.53;;;14.13;;
50483;SDS011;36409;52.168;20.878;2023-04-08T03:30:09;22.27;;;15.23;;
50483;SDS011;36409;52.168;20.878;2023-04-08T03:32:38;20.83;;;14.50;;
50483;SDS011;36409;52.168;20.878;2023-04-08T03:35:09;22.17;;;15.10;;
50483;SDS011;36409;52.168;20.878;2023-04-08T03:37:38;24.17;;;15.20;;
50483;SDS011;36409;52.168;20.878;2023-04-08T03:40:09;21.00;;;14.40;;
50483;SDS011;36409;52.168;20.878;2023-04-08T03:42:39;20.03;;;14.53;;
50483;SDS011;36409;52.168;20.878;2023-04-08T03:45:08;20.27;;;14.47;;
50483;SDS011;36409;52.168;20.878;2023-04-08T03:47:38;21.87;;;14.67;;
50483;SDS011;36409;52.168;20.878;2023-04-08T03:50:13;20.53;;;14.10;;
50483;SDS011;36409;52.168;20.878;2023-04-08T03:52:44;21.10;;;14.20;;
50483;SDS011;36409;52.168;20.878;2023-04-08T03:55:16;22.10;;;14.67;;
50483;SDS011;36409;52.168;20.878;2023-04-08T03:57:45;21.77;;;14.87;;
50483;SDS011;36409;52.168;20.878;2023-04-08T04:00:17;21.93;;;14.73;;
50483;SDS011;36409;52.168;20.878;2023-04-08T04:02:52;21.20;;;13.93;;
50483;SDS011;36409;52.168;20.878;2023-04-08T04:05:28;19.33;;;13.03;;
50483;SDS011;36409;52.168;20.878;2023-04-08T04:08:00;24.53;;;14.00;;
50483;SDS011;36409;52.168;20.878;2023-04-08T04:10:34;21.00;;;13.70;;
50483;SDS011;36409;52.168;20.878;2023-04-08T04:13:12;19.13;;;12.83;;
50483;SDS011;36409;52.168;20.878;2023-04-08T04:15:42;21.57;;;13.77;;
50483;SDS011;36409;52.168;20.878;2023-04-08T04:18:14;21.87;;;13.73;;
50483;SDS011;36409;52.168;20.878;2023-04-08T04:20:43;19.80;;;13.17;;
50483;SDS011;36409;52.168;20.878;2023-04-08T04:23:15;20.87;;;13.10;;
50483;SDS011;36409;52.168;20.878;2023-04-08T04:25:44;21.43;;;13.40;;
50483;SDS011;36409;52.168;20.878;2023-04-08T04:28:13;17.13;;;11.97;;
50483;SDS011;36409;52.168;20.878;2023-04-08T04:30:47;25.17;;;13.70;;
50483;SDS011;36409;52.168;20.878;2023-04-08T04:33:17;19.43;;;13.27;;
50483;SDS011;36409;52.168;20.878;2023-04-08T04:35:47;21.27;;;13.73;;
50483;SDS011;36409;52.168;20.878;2023-04-08T04:38:19;20.23;;;14.70;;
50483;SDS011;36409;52.168;20.878;2023-04-08T04:40:54;23.40;;;13.80;;
50483;SDS011;36409;52.168;20.878;2023-04-08T04:43:27;23.10;;;13.57;;
50483;SDS011;36409;52.168;20.878;2023-04-08T04:45:56;20.70;;;14.07;;
50483;SDS011;36409;52.168;20.878;2023-04-08T04:48:28;23.53;;;14.90;;
50483;SDS011;36409;52.168;20.878;2023-04-08T04:50:59;21.70;;;14.13;;
50483;SDS011;36409;52.168;20.878;2023-04-08T04:53:29;23.53;;;14.17;;
50483;SDS011;36409;52.168;20.878;2023-04-08T04:55:58;27.90;;;15.67;;
50483;SDS011;36409;52.168;20.878;2023-04-08T04:58:30;22.97;;;15.23;;
50483;SDS011;36409;52.168;20.878;2023-04-08T05:00:59;24.37;;;15.33;;
50483;SDS011;36409;52.168;20.878;2023-04-08T05:03:31;24.43;;;16.20;;
50483;SDS011;36409;52.168;20.878;2023-04-08T05:06:00;22.00;;;15.00;;
50483;SDS011;36409;52.168;20.878;2023-04-08T05:08:29;24.77;;;14.77;;
50483;SDS011;36409;52.168;20.878;2023-04-08T05:10:58;25.50;;;15.67;;
50483;SDS011;36409;52.168;20.878;2023-04-08T05:13:28;22.53;;;15.50;;
50483;SDS011;36409;52.168;20.878;2023-04-08T05:16:03;23.70;;;14.57;;
50483;SDS011;36409;52.168;20.878;2023-04-08T05:18:33;19.73;;;13.20;;
50483;SDS011;36409;52.168;20.878;2023-04-08T05:21:02;19.73;;;12.67;;
50483;SDS011;36409;52.168;20.878;2023-04-08T05:23:33;17.67;;;11.13;;
50483;SDS011;36409;52.168;20.878;2023-04-08T05:26:04;16.93;;;11.20;;
50483;SDS011;36409;52.168;20.878;2023-04-08T05:28:49;16.27;;;11.13;;
50483;SDS011;36409;52.168;20.878;2023-04-08T05:31:22;16.47;;;10.00;;
50483;SDS011;36409;52.168;20.878;2023-04-08T05:33:54;13.17;;;9.23;;
50483;SDS011;36409;52.168;20.878;2023-04-08T05:36:23;13.73;;;9.27;;
50483;SDS011;36409;52.168;20.878;2023-04-08T05:38:56;13.47;;;9.43;;
50483;SDS011;36409;52.168;20.878;2023-04-08T05:41:33;12.75;;;8.35;;
50483;SDS011;36409;52.168;20.878;2023-04-08T05:44:08;12.65;;;8.40;;
50483;SDS011;36409;52.168;20.878;2023-04-08T05:46:40;12.00;;;8.23;;
50483;SDS011;36409;52.168;20.878;2023-04-08T05:49:09;10.43;;;7.47;;
50483;SDS011;36409;52.168;20.878;2023-04-08T05:51:38;11.63;;;8.27;;
50483;SDS011;36409;52.168;20.878;2023-04-08T05:54:08;12.67;;;7.93;;
50483;SDS011;36409;52.168;20.878;2023-04-08T05:56:39;9.83;;;7.10;;
50483;SDS011;36409;52.168;20.878;2023-04-08T05:59:14;10.13;;;7.60;;
50483;SDS011;36409;52.168;20.878;2023-04-08T06:01:46;13.23;;;9.10;;
50483;SDS011;36409;52.168;20.878;2023-04-08T06:04:17;10.30;;;7.72;;
50483;SDS011;36409;52.168;20.878;2023-04-08T06:06:46;11.93;;;8.57;;
50483;SDS011;36409;52.168;20.878;2023-04-08T06:09:15;12.47;;;8.67;;
50483;SDS011;36409;52.168;20.878;2023-04-08T06:11:44;11.97;;;8.53;;
50483;SDS011;36409;52.168;20.878;2023-04-08T06:14:17;13.27;;;8.70;;
50483;SDS011;36409;52.168;20.878;2023-04-08T06:16:49;14.20;;;9.00;;
50483;SDS011;36409;52.168;20.878;2023-04-08T06:21:48;12.93;;;8.43;;
50483;SDS011;36409;52.168;20.878;2023-04-08T06:24:17;14.20;;;8.43;;
50483;SDS011;36409;52.168;20.878;2023-04-08T06:26:47;13.47;;;8.43;;
50483;SDS011;36409;52.168;20.878;2023-04-08T06:29:16;12.33;;;8.10;;
50483;SDS011;36409;52.168;20.878;2023-04-08T06:31:45;12.40;;;7.63;;
50483;SDS011;36409;52.168;20.878;2023-04-08T06:34:16;10.37;;;6.77;;
50483;SDS011;36409;52.168;20.878;2023-04-08T06:36:47;9.73;;;7.10;;
50483;SDS011;36409;52.168;20.878;2023-04-08T06:39:16;11.57;;;7.37;;
50483;SDS011;36409;52.168;20.878;2023-04-08T06:41:47;10.00;;;7.50;;
50483;SDS011;36409;52.168;20.878;2023-04-08T06:44:25;10.37;;;7.57;;
50483;SDS011;36409;52.168;20.878;2023-04-08T06:46:58;10.20;;;7.43;;
50483;SDS011;36409;52.168;20.878;2023-04-08T06:49:28;8.70;;;6.77;;
50483;SDS011;36409;52.168;20.878;2023-04-08T06:51:57;8.87;;;6.50;;
50483;SDS011;36409;52.168;20.878;2023-04-08T06:54:31;12.87;;;6.33;;
50483;SDS011;36409;52.168;20.878;2023-04-08T06:57:00;10.00;;;6.80;;
50483;SDS011;36409;52.168;20.878;2023-04-08T06:59:32;10.00;;;7.00;;
50483;SDS011;36409;52.168;20.878;2023-04-08T07:02:04;10.27;;;7.37;;
50483;SDS011;36409;52.168;20.878;2023-04-08T07:04:33;7.70;;;5.87;;
50483;SDS011;36409;52.168;20.878;2023-04-08T07:07:02;10.63;;;6.97;;
50483;SDS011;36409;52.168;20.878;2023-04-08T07:09:30;9.40;;;6.07;;
50483;SDS011;36409;52.168;20.878;2023-04-08T07:11:59;9.00;;;6.37;;
50483;SDS011;36409;52.168;20.878;2023-04-08T07:14:31;8.17;;;6.27;;
50483;SDS011;36409;52.168;20.878;2023-04-08T07:17:00;8.60;;;5.90;;
50483;SDS011;36409;52.168;20.878;2023-04-08T07:19:29;10.10;;;5.83;;
50483;SDS011;36409;52.168;20.878;2023-04-08T07:21:59;10.90;;;6.05;;
50483;SDS011;36409;52.168;20.878;2023-04-08T07:24:28;7.90;;;5.77;;
50483;SDS011;36409;52.168;20.878;2023-04-08T07:26:57;8.97;;;6.47;;
50483;SDS011;36409;52.168;20.878;2023-04-08T07:29:27;8.70;;;6.10;;
50483;SDS011;36409;52.168;20.878;2023-04-08T07:31:56;9.70;;;6.50;;
50483;SDS011;36409;52.168;20.878;2023-04-08T07:34:28;9.03;;;6.30;;
50483;SDS011;36409;52.168;20.878;2023-04-08T07:36:57;8.63;;;6.33;;
50483;SDS011;36409;52.168;20.878;2023-04-08T07:39:40;9.63;;;6.70;;
50483;SDS011;36409;52.168;20.878;2023-04-08T07:42:09;9.80;;;6.73;;
50483;SDS011;36409;52.168;20.878;2023-04-08T07:44:38;10.53;;;6.40;;
50483;SDS011;36409;52.168;20.878;2023-04-08T07:47:08;8.70;;;6.50;;
50483;SDS011;36409;52.168;20.878;2023-04-08T07:49:44;10.20;;;6.70;;
50483;SDS011;36409;52.168;20.878;2023-04-08T07:52:14;9.50;;;7.23;;
50483;SDS011;36409;52.168;20.878;2023-04-08T07:54:46;9.03;;;6.57;;
50483;SDS011;36409;52.168;20.878;2023-04-08T07:57:15;8.77;;;6.33;;
50483;SDS011;36409;52.168;20.878;2023-04-08T07:59:44;9.00;;;5.97;;
50483;SDS011;36409;52.168;20.878;2023-04-08T08:02:18;7.60;;;5.87;;
50483;SDS011;36409;52.168;20.878;2023-04-08T08:04:50;8.63;;;6.20;;
50483;SDS011;36409;52.168;20.878;2023-04-08T08:07:20;8.40;;;5.77;;
50483;SDS011;36409;52.168;20.878;2023-04-08T08:09:49;9.77;;;6.07;;
50483;SDS011;36409;52.168;20.878;2023-04-08T08:12:17;7.27;;;5.37;;
50483;SDS011;36409;52.168;20.878;2023-04-08T08:14:46;8.77;;;5.87;;
50483;SDS011;36409;52.168;20.878;2023-04-08T08:17:20;10.00;;;5.97;;
50483;SDS011;36409;52.168;20.878;2023-04-08T08:19:50;9.13;;;5.47;;
50483;SDS011;36409;52.168;20.878;2023-04-08T08:22:19;7.70;;;5.80;;
50483;SDS011;36409;52.168;20.878;2023-04-08T08:24:48;8.13;;;5.93;;
50483;SDS011;36409;52.168;20.878;2023-04-08T08:29:53;7.17;;;5.33;;
50483;SDS011;36409;52.168;20.878;2023-04-08T08:32:32;7.23;;;5.43;;
50483;SDS011;36409;52.168;20.878;2023-04-08T08:37:33;7.23;;;4.53;;
50483;SDS011;36409;52.168;20.878;2023-04-08T08:40:02;8.95;;;6.00;;
50483;SDS011;36409;52.168;20.878;2023-04-08T08:42:31;8.00;;;5.70;;
50483;SDS011;36409;52.168;20.878;2023-04-08T08:45:03;7.80;;;5.67;;
50483;SDS011;36409;52.168;20.878;2023-04-08T08:47:33;7.97;;;5.17;;
50483;SDS011;36409;52.168;20.878;2023-04-08T08:50:02;8.07;;;4.83;;
50483;SDS011;36409;52.168;20.878;2023-04-08T08:52:33;8.67;;;5.27;;
50483;SDS011;36409;52.168;20.878;2023-04-08T08:55:11;8.63;;;6.10;;
50483;SDS011;36409;52.168;20.878;2023-04-08T08:57:59;7.50;;;5.40;;
50483;SDS011;36409;52.168;20.878;2023-04-08T09:00:31;11.23;;;5.70;;
50483;SDS011;36409;52.168;20.878;2023-04-08T09:03:15;8.17;;;5.50;;
50483;SDS011;36409;52.168;20.878;2023-04-08T09:06:02;7.40;;;5.20;;
50483;SDS011;36409;52.168;20.878;2023-04-08T09:08:34;8.13;;;5.97;;
50483;SDS011;36409;52.168;20.878;2023-04-08T09:11:11;7.50;;;5.27;;
50483;SDS011;36409;52.168;20.878;2023-04-08T09:13:49;7.90;;;6.10;;
50483;SDS011;36409;52.168;20.878;2023-04-08T09:16:21;8.73;;;5.93;;
50483;SDS011;36409;52.168;20.878;2023-04-08T09:18:50;8.47;;;6.13;;
50483;SDS011;36409;52.168;20.878;2023-04-08T09:21:21;8.53;;;6.13;;
50483;SDS011;36409;52.168;20.878;2023-04-08T09:23:53;8.08;;;5.80;;
50483;SDS011;36409;52.168;20.878;2023-04-08T09:26:23;8.20;;;6.03;;
50483;SDS011;36409;52.168;20.878;2023-04-08T09:28:57;7.87;;;5.87;;
50483;SDS011;36409;52.168;20.878;2023-04-08T09:31:38;9.40;;;6.27;;
50483;SDS011;36409;52.168;20.878;2023-04-08T09:34:09;8.20;;;5.37;;
50483;SDS011;36409;52.168;20.878;2023-04-08T09:36:39;7.97;;;5.80;;
50483;SDS011;36409;52.168;20.878;2023-04-08T09:39:12;9.03;;;6.60;;
50483;SDS011;36409;52.168;20.878;2023-04-08T09:41:41;7.20;;;5.50;;
50483;SDS011;36409;52.168;20.878;2023-04-08T09:44:11;8.03;;;5.93;;
50483;SDS011;36409;52.168;20.878;2023-04-08T09:46:50;9.03;;;6.77;;
50483;SDS011;36409;52.168;20.878;2023-04-08T09:49:31;9.43;;;6.40;;
50483;SDS011;36409;52.168;20.878;2023-04-08T09:52:06;9.07;;;5.77;;
50483;SDS011;36409;52.168;20.878;2023-04-08T09:54:41;8.40;;;6.27;;
50483;SDS011;36409;52.168;20.878;2023-04-08T09:57:20;8.03;;;6.27;;
50483;SDS011;36409;52.168;20.878;2023-04-08T09:59:56;10.10;;;6.77;;
50483;SDS011;36409;52.168;20.878;2023-04-08T10:02:44;10.00;;;6.50;;
50483;SDS011;36409;52.168;20.878;2023-04-08T10:05:23;9.18;;;6.65;;
50483;SDS011;36409;52.168;20.878;2023-04-08T10:07:55;8.73;;;6.10;;
50483;SDS011;36409;52.168;20.878;2023-04-08T10:10:24;9.43;;;6.10;;
50483;SDS011;36409;52.168;20.878;2023-04-08T10:12:56;8.43;;;6.20;;
50483;SDS011;36409;52.168;20.878;2023-04-08T10:15:27;9.03;;;6.27;;
50483;SDS011;36409;52.168;20.878;2023-04-08T10:21:00;8.83;;;6.43;;
50483;SDS011;36409;52.168;20.878;2023-04-08T10:26:31;9.17;;;5.37;;
50483;SDS011;36409;52.168;20.878;2023-04-08T10:32:00;8.83;;;6.27;;
50483;SDS011;36409;52.168;20.878;2023-04-08T10:34:33;9.20;;;6.10;;
50483;SDS011;36409;52.168;20.878;2023-04-08T10:37:18;9.30;;;5.93;;
50483;SDS011;36409;52.168;20.878;2023-04-08T10:39:51;7.63;;;5.73;;
50483;SDS011;36409;52.168;20.878;2023-04-08T10:42:29;8.23;;;5.50;;
50483;SDS011;36409;52.168;20.878;2023-04-08T10:45:01;8.67;;;5.67;;
50483;SDS011;36409;52.168;20.878;2023-04-08T10:47:30;7.07;;;5.17;;
50483;SDS011;36409;52.168;20.878;2023-04-08T10:50:00;6.60;;;5.17;;
50483;SDS011;36409;52.168;20.878;2023-04-08T10:52:45;7.47;;;5.10;;
50483;SDS011;36409;52.168;20.878;2023-04-08T10:55:21;7.00;;;5.33;;
50483;SDS011;36409;52.168;20.878;2023-04-08T10:57:55;7.10;;;5.00;;
50483;SDS011;36409;52.168;20.878;2023-04-08T11:00:35;8.23;;;5.40;;
50483;SDS011;36409;52.168;20.878;2023-04-08T11:03:07;7.07;;;5.00;;
50483;SDS011;36409;52.168;20.878;2023-04-08T11:05:39;6.85;;;5.50;;
50483;SDS011;36409;52.168;20.878;2023-04-08T11:08:12;7.37;;;4.80;;
50483;SDS011;36409;52.168;20.878;2023-04-08T11:10:41;6.53;;;4.67;;
50483;SDS011;36409;52.168;20.878;2023-04-08T11:13:11;6.67;;;5.03;;
50483;SDS011;36409;52.168;20.878;2023-04-08T11:15:41;7.00;;;5.23;;
50483;SDS011;36409;52.168;20.878;2023-04-08T11:18:12;7.83;;;5.30;;
50483;SDS011;36409;52.168;20.878;2023-04-08T11:20:43;8.33;;;4.90;;
50483;SDS011;36409;52.168;20.878;2023-04-08T11:23:23;6.47;;;4.60;;
50483;SDS011;36409;52.168;20.878;2023-04-08T11:25:55;6.07;;;4.70;;
50483;SDS011;36409;52.168;20.878;2023-04-08T11:28:25;8.10;;;4.73;;
50483;SDS011;36409;52.168;20.878;2023-04-08T11:30:55;6.17;;;5.00;;
50483;SDS011;36409;52.168;20.878;2023-04-08T11:33:25;5.53;;;4.43;;
50483;SDS011;36409;52.168;20.878;2023-04-08T11:36:00;6.60;;;5.00;;
50483;SDS011;36409;52.168;20.878;2023-04-08T11:38:31;6.50;;;4.63;;
50483;SDS011;36409;52.168;20.878;2023-04-08T11:41:05;5.87;;;4.40;;
50483;SDS011;36409;52.168;20.878;2023-04-08T11:43:38;5.80;;;4.30;;
50483;SDS011;36409;52.168;20.878;2023-04-08T11:46:18;5.60;;;3.87;;
50483;SDS011;36409;52.168;20.878;2023-04-08T11:48:58;6.50;;;4.13;;
50483;SDS011;36409;52.168;20.878;2023-04-08T11:51:29;6.20;;;3.83;;
50483;SDS011;36409;52.168;20.878;2023-04-08T11:53:58;5.77;;;4.23;;
50483;SDS011;36409;52.168;20.878;2023-04-08T11:56:42;5.72;;;4.00;;
50483;SDS011;36409;52.168;20.878;2023-04-08T11:59:13;5.33;;;4.07;;
50483;SDS011;36409;52.168;20.878;2023-04-08T12:01:42;5.23;;;3.57;;
50483;SDS011;36409;52.168;20.878;2023-04-08T12:04:12;6.73;;;4.20;;
50483;SDS011;36409;52.168;20.878;2023-04-08T12:06:42;9.40;;;4.10;;
50483;SDS011;36409;52.168;20.878;2023-04-08T12:09:13;5.60;;;4.03;;
50483;SDS011;36409;52.168;20.878;2023-04-08T12:11:42;5.40;;;3.87;;
50483;SDS011;36409;52.168;20.878;2023-04-08T12:14:11;5.17;;;3.70;;
50483;SDS011;36409;52.168;20.878;2023-04-08T12:16:40;5.70;;;3.73;;
50483;SDS011;36409;52.168;20.878;2023-04-08T12:19:10;6.23;;;4.00;;
50483;SDS011;36409;52.168;20.878;2023-04-08T12:21:39;5.27;;;3.80;;
50483;SDS011;36409;52.168;20.878;2023-04-08T12:24:09;6.23;;;3.87;;
50483;SDS011;36409;52.168;20.878;2023-04-08T12:26:37;5.50;;;3.47;;
50483;SDS011;36409;52.168;20.878;2023-04-08T12:29:08;5.87;;;4.17;;
50483;SDS011;36409;52.168;20.878;2023-04-08T12:31:38;7.03;;;4.60;;
50483;SDS011;36409;52.168;20.878;2023-04-08T12:34:07;6.93;;;4.60;;
50483;SDS011;36409;52.168;20.878;2023-04-08T12:36:36;6.23;;;3.70;;
50483;SDS011;36409;52.168;20.878;2023-04-08T12:39:09;5.67;;;3.80;;
50483;SDS011;36409;52.168;20.878;2023-04-08T12:41:38;5.13;;;3.53;;
50483;SDS011;36409;52.168;20.878;2023-04-08T12:44:07;5.30;;;3.17;;
50483;SDS011;36409;52.168;20.878;2023-04-08T12:46:36;5.87;;;3.90;;
50483;SDS011;36409;52.168;20.878;2023-04-08T12:49:23;5.60;;;3.57;;
50483;SDS011;36409;52.168;20.878;2023-04-08T12:51:55;7.30;;;3.87;;
50483;SDS011;36409;52.168;20.878;2023-04-08T12:54:28;5.13;;;3.70;;
50483;SDS011;36409;52.168;20.878;2023-04-08T12:56:59;7.00;;;3.65;;
50483;SDS011;36409;52.168;20.878;2023-04-08T12:59:32;5.43;;;3.47;;
50483;SDS011;36409;52.168;20.878;2023-04-08T13:02:01;5.73;;;3.93;;
50483;SDS011;36409;52.168;20.878;2023-04-08T13:04:40;5.07;;;3.53;;
50483;SDS011;36409;52.168;20.878;2023-04-08T13:07:10;5.10;;;3.37;;
50483;SDS011;36409;52.168;20.878;2023-04-08T13:09:39;5.80;;;3.97;;
50483;SDS011;36409;52.168;20.878;2023-04-08T13:12:12;5.58;;;3.50;;
50483;SDS011;36409;52.168;20.878;2023-04-08T13:14:44;5.47;;;3.50;;
50483;SDS011;36409;52.168;20.878;2023-04-08T13:17:13;5.87;;;4.00;;
50483;SDS011;36409;52.168;20.878;2023-04-08T13:19:42;5.30;;;4.00;;
50483;SDS011;36409;52.168;20.878;2023-04-08T13:22:21;5.90;;;3.83;;
50483;SDS011;36409;52.168;20.878;2023-04-08T13:24:50;7.07;;;3.73;;
50483;SDS011;36409;52.168;20.878;2023-04-08T13:27:19;5.23;;;3.70;;
50483;SDS011;36409;52.168;20.878;2023-04-08T13:29:48;4.60;;;3.13;;
50483;SDS011;36409;52.168;20.878;2023-04-08T13:32:21;6.60;;;3.30;;
50483;SDS011;36409;52.168;20.878;2023-04-08T13:34:52;6.07;;;4.07;;
50483;SDS011;36409;52.168;20.878;2023-04-08T13:37:21;6.43;;;3.70;;
50483;SDS011;36409;52.168;20.878;2023-04-08T13:39:50;6.00;;;3.60;;
50483;SDS011;36409;52.168;20.878;2023-04-08T13:45:06;6.60;;;3.40;;
50483;SDS011;36409;52.168;20.878;2023-04-08T13:47:38;5.40;;;3.65;;
50483;SDS011;36409;52.168;20.878;2023-04-08T13:50:08;5.97;;;3.83;;
50483;SDS011;36409;52.168;20.878;2023-04-08T13:52:38;6.80;;;3.57;;
50483;SDS011;36409;52.168;20.878;2023-04-08T13:55:13;7.30;;;4.33;;
50483;SDS011;36409;52.168;20.878;2023-04-08T13:57:43;5.40;;;3.77;;
50483;SDS011;36409;52.168;20.878;2023-04-08T14:00:13;5.65;;;3.95;;
50483;SDS011;36409;52.168;20.878;2023-04-08T14:02:42;5.93;;;4.27;;
50483;SDS011;36409;52.168;20.878;2023-04-08T14:05:12;5.67;;;4.00;;
50483;SDS011;36409;52.168;20.878;2023-04-08T14:07:43;6.13;;;3.70;;
50483;SDS011;36409;52.168;20.878;2023-04-08T14:10:12;7.27;;;4.10;;
50483;SDS011;36409;52.168;20.878;2023-04-08T14:12:42;5.90;;;4.03;;
50483;SDS011;36409;52.168;20.878;2023-04-08T14:15:18;6.93;;;4.20;;
50483;SDS011;36409;52.168;20.878;2023-04-08T14:17:47;5.77;;;3.90;;
50483;SDS011;36409;52.168;20.878;2023-04-08T14:20:17;5.60;;;3.80;;
50483;SDS011;36409;52.168;20.878;2023-04-08T14:22:47;6.00;;;3.77;;
50483;SDS011;36409;52.168;20.878;2023-04-08T14:25:18;6.87;;;3.93;;
50483;SDS011;36409;52.168;20.878;2023-04-08T14:27:47;6.27;;;4.20;;
50483;SDS011;36409;52.168;20.878;2023-04-08T14:30:25;6.33;;;4.20;;
50483;SDS011;36409;52.168;20.878;2023-04-08T14:32:56;5.70;;;4.00;;
50483;SDS011;36409;52.168;20.878;2023-04-08T14:35:42;6.97;;;4.27;;
50483;SDS011;36409;52.168;20.878;2023-04-08T14:38:11;5.87;;;3.90;;
50483;SDS011;36409;52.168;20.878;2023-04-08T14:40:40;6.20;;;4.60;;
50483;SDS011;36409;52.168;20.878;2023-04-08T14:43:12;7.17;;;4.50;;
50483;SDS011;36409;52.168;20.878;2023-04-08T14:45:42;6.20;;;4.50;;
50483;SDS011;36409;52.168;20.878;2023-04-08T14:48:14;6.50;;;4.20;;
50483;SDS011;36409;52.168;20.878;2023-04-08T14:50:46;8.77;;;4.40;;
50483;SDS011;36409;52.168;20.878;2023-04-08T14:53:17;6.60;;;4.57;;
50483;SDS011;36409;52.168;20.878;2023-04-08T14:55:47;6.87;;;4.70;;
50483;SDS011;36409;52.168;20.878;2023-04-08T14:58:19;6.17;;;4.33;;
50483;SDS011;36409;52.168;20.878;2023-04-08T15:00:48;7.00;;;4.50;;
50483;SDS011;36409;52.168;20.878;2023-04-08T15:03:19;6.23;;;3.70;;
50483;SDS011;36409;52.168;20.878;2023-04-08T15:05:57;5.23;;;3.53;;
50483;SDS011;36409;52.168;20.878;2023-04-08T15:08:27;6.03;;;4.00;;
50483;SDS011;36409;52.168;20.878;2023-04-08T15:10:58;6.27;;;4.10;;
50483;SDS011;36409;52.168;20.878;2023-04-08T15:13:28;7.37;;;4.00;;
50483;SDS011;36409;52.168;20.878;2023-04-08T15:16:02;5.83;;;3.77;;